createdAt,value
2019-04-01T00:01:55.451Z,45.70
2019-04-01T00:04:25.094Z,46.00
2019-04-01T00:06:54.759Z,46.27
2019-04-01T00:09:24.502Z,45.50
2019-04-01T00:11:55.784Z,45.80
2019-04-01T00:14:26.669Z,46.10
2019-04-01T00:16:56.339Z,45.83
2019-04-01T00:19:26.004Z,46.03
2019-04-01T00:21:55.710Z,46.13
2019-04-01T00:24:25.358Z,46.53
2019-04-01T00:26:55.022Z,46.17
2019-04-01T00:29:24.683Z,46.00
2019-04-01T00:31:54.339Z,46.33
2019-04-01T00:34:23.983Z,45.80
2019-04-01T00:36:53.643Z,46.07
2019-04-01T00:39:23.287Z,45.80
2019-04-01T00:42:00.943Z,45.87
2019-04-01T00:44:30.587Z,46.30
2019-04-01T00:47:00.239Z,45.87
2019-04-01T00:49:29.883Z,45.60
2019-04-01T00:51:59.611Z,46.23
2019-04-01T00:54:29.265Z,45.90
2019-04-01T00:56:58.927Z,45.80
2019-04-01T00:59:28.575Z,45.80
2019-04-01T01:01:58.242Z,46.20
2019-04-01T01:04:27.887Z,45.73
2019-04-01T01:06:57.542Z,45.90
2019-04-01T01:09:27.187Z,45.70
2019-04-01T01:11:56.835Z,46.17
2019-04-01T01:14:26.531Z,45.80
2019-04-01T01:16:56.186Z,46.17
2019-04-01T01:19:25.927Z,45.50
2019-04-01T01:21:55.670Z,45.37
2019-04-01T01:24:25.306Z,45.37
2019-04-01T01:26:54.958Z,45.27
2019-04-01T01:29:24.607Z,45.50
2019-04-01T01:31:54.259Z,45.10
2019-04-01T01:34:24.055Z,45.77
2019-04-01T01:36:53.714Z,45.40
2019-04-01T01:39:23.350Z,45.70
2019-04-01T01:41:53.010Z,45.40
2019-04-01T01:44:22.663Z,45.33
2019-04-01T01:46:52.323Z,45.93
2019-04-01T01:49:21.971Z,45.17
2019-04-01T01:51:51.622Z,45.40
2019-04-01T01:54:21.268Z,45.43
2019-04-01T01:56:50.991Z,45.83
2019-04-01T01:59:20.636Z,45.43
2019-04-01T02:01:50.336Z,45.50
2019-04-01T02:04:20.027Z,44.87
2019-04-01T02:06:49.684Z,45.37
2019-04-01T02:09:19.329Z,44.80
2019-04-01T02:11:48.985Z,45.63
2019-04-01T02:14:18.638Z,45.27
2019-04-01T02:16:48.381Z,45.40
2019-04-01T02:19:18.080Z,45.50
2019-04-01T02:21:47.729Z,45.43
2019-04-01T02:24:17.365Z,45.07
2019-04-01T02:26:47.030Z,45.93
2019-04-01T02:29:16.686Z,46.30
2019-04-01T02:31:46.347Z,46.87
2019-04-01T02:34:15.996Z,46.53
2019-04-01T02:36:45.661Z,46.63
2019-04-01T02:39:15.299Z,47.57
2019-04-01T02:41:44.960Z,46.87
2019-04-01T02:44:14.607Z,45.83
2019-04-01T02:46:44.269Z,46.10
2019-04-01T02:49:13.900Z,45.27
2019-04-01T02:51:43.560Z,45.57
2019-04-01T02:54:13.220Z,45.73
2019-04-01T02:56:42.874Z,46.13
2019-04-01T02:59:12.519Z,45.20
2019-04-01T03:01:42.260Z,45.43
2019-04-01T03:04:11.910Z,45.67
2019-04-01T03:06:42.661Z,45.87
2019-04-01T03:09:13.280Z,45.83
2019-04-01T03:11:42.947Z,45.00
2019-04-01T03:14:12.625Z,45.27
2019-04-01T03:16:42.275Z,45.47
2019-04-01T03:19:12.017Z,45.33
2019-04-01T03:21:41.680Z,45.03
2019-04-01T03:24:11.355Z,44.97
2019-04-01T03:26:41.018Z,44.90
2019-04-01T03:29:10.730Z,44.90
2019-04-01T03:31:40.460Z,45.53
2019-04-01T03:34:10.123Z,45.27
2019-04-01T03:36:39.805Z,44.93
2019-04-01T03:39:09.475Z,44.77
2019-04-01T03:41:39.187Z,45.10
2019-04-01T03:44:08.915Z,44.80
2019-04-01T03:46:38.576Z,44.63
2019-04-01T03:49:08.288Z,44.60
2019-04-01T03:51:37.944Z,44.80
2019-04-01T03:54:07.600Z,45.23
2019-04-01T03:56:37.267Z,44.97
2019-04-01T03:59:06.942Z,45.20
2019-04-01T04:01:36.594Z,44.87
2019-04-01T04:04:06.236Z,44.87
2019-04-01T04:06:35.972Z,45.17
2019-04-01T04:09:06.555Z,44.70
2019-04-01T04:11:36.219Z,45.73
2019-04-01T04:14:05.944Z,44.63
2019-04-01T04:16:35.774Z,44.77
2019-04-01T04:19:05.557Z,44.73
2019-04-01T04:21:35.204Z,44.67
2019-04-01T04:24:04.927Z,44.00
2019-04-01T04:26:34.578Z,44.37
2019-04-01T04:29:04.406Z,44.37
2019-04-01T04:31:34.132Z,44.20
2019-04-01T04:34:03.857Z,44.23
2019-04-01T04:36:33.587Z,44.27
2019-04-01T04:39:05.071Z,44.43
2019-04-01T04:41:34.728Z,44.60
2019-04-01T04:44:04.551Z,44.53
2019-04-01T04:46:35.173Z,44.33
2019-04-01T04:49:05.165Z,44.50
2019-04-01T04:51:35.898Z,44.37
2019-04-01T04:54:05.551Z,44.93
2019-04-01T04:56:35.202Z,44.60
2019-04-01T04:59:04.935Z,44.80
2019-04-01T05:01:34.587Z,44.30
2019-04-01T05:04:04.230Z,44.27
2019-04-01T05:06:33.963Z,44.53
2019-04-01T05:09:05.710Z,44.50
2019-04-01T05:11:35.373Z,44.07
2019-04-01T05:14:05.234Z,44.40
2019-04-01T05:16:34.903Z,44.50
2019-04-01T05:19:04.631Z,44.07
2019-04-01T05:21:35.585Z,44.40
2019-04-01T05:24:05.331Z,44.47
2019-04-01T05:26:36.345Z,44.77
2019-04-01T05:29:06.372Z,44.67
2019-04-01T05:31:38.079Z,44.20
2019-04-01T05:34:10.278Z,44.90
2019-04-01T05:36:40.002Z,44.73
2019-04-01T05:39:09.826Z,44.70
2019-04-01T05:41:39.558Z,44.33
2019-04-01T05:44:09.727Z,45.00
2019-04-01T05:46:39.798Z,44.73
2019-04-01T05:49:10.450Z,43.83
2019-04-01T05:51:40.190Z,44.63
2019-04-01T05:54:09.923Z,44.40
2019-04-01T05:56:39.575Z,44.70
2019-04-01T05:59:09.506Z,44.03
2019-04-01T06:01:42.197Z,44.70
2019-04-01T06:04:11.930Z,44.27
2019-04-01T06:06:41.659Z,44.30
2019-04-01T06:09:11.395Z,45.17
2019-04-01T06:11:41.115Z,45.17
2019-04-01T06:14:11.454Z,45.30
2019-04-01T06:16:41.587Z,44.93
2019-04-01T06:19:11.390Z,45.70
2019-04-01T06:21:41.191Z,46.30
2019-04-01T06:24:10.986Z,45.57
2019-04-01T06:26:41.182Z,45.80
2019-04-01T06:29:11.123Z,45.30
2019-04-01T06:31:40.847Z,45.20
2019-04-01T06:34:10.674Z,46.10
2019-04-01T06:36:41.443Z,45.83
2019-04-01T06:39:11.104Z,46.87
2019-04-01T06:41:40.907Z,47.47
2019-04-01T06:44:10.551Z,47.60
2019-04-01T06:46:40.279Z,48.10
2019-04-01T06:49:10.275Z,48.23
2019-04-01T06:51:39.990Z,48.27
2019-04-01T06:54:09.795Z,48.80
2019-04-01T06:56:40.199Z,49.10
2019-04-01T06:59:10.605Z,49.00
2019-04-01T07:01:40.321Z,49.77
2019-04-01T07:04:11.055Z,49.20
2019-04-01T07:06:40.779Z,49.30
2019-04-01T07:09:10.456Z,49.40
2019-04-01T07:11:40.722Z,48.77
2019-04-01T07:14:10.655Z,49.33
2019-04-01T07:16:40.650Z,49.63
2019-04-01T07:19:10.559Z,49.43
2019-04-01T07:21:40.934Z,49.07
2019-04-01T07:24:11.271Z,49.67
2019-04-01T07:26:41.391Z,53.27
2019-04-01T07:29:11.577Z,49.83
2019-04-01T07:31:41.375Z,49.33
2019-04-01T07:37:34.415Z,49.50
2019-04-01T07:40:05.211Z,52.77
2019-04-01T07:42:34.948Z,50.60
2019-04-01T07:45:05.800Z,50.23
2019-04-01T07:47:36.534Z,50.50
2019-04-01T07:50:06.789Z,51.03
2019-04-01T07:52:36.415Z,51.13
2019-04-01T07:55:06.263Z,51.07
2019-04-01T07:57:36.918Z,50.90
2019-04-01T08:00:07.583Z,51.30
2019-04-01T08:02:37.779Z,54.23
2019-04-01T08:05:07.966Z,51.80
2019-04-01T08:07:37.720Z,54.53
2019-04-01T08:10:08.538Z,52.30
2019-04-01T08:12:38.370Z,54.03
2019-04-01T08:15:08.556Z,52.30
2019-04-01T08:17:38.271Z,54.23
2019-04-01T08:20:20.051Z,52.33
2019-04-01T08:22:50.816Z,53.10
2019-04-01T08:25:20.532Z,52.60
2019-04-01T08:27:50.422Z,53.27
2019-04-01T08:33:16.650Z,51.43
2019-04-01T08:35:46.346Z,51.63
2019-04-01T08:38:16.122Z,51.60
2019-04-01T08:40:45.890Z,51.30
2019-04-01T08:43:15.678Z,50.73
2019-04-01T08:45:59.491Z,50.93
2019-04-01T08:48:35.903Z,51.37
2019-04-01T08:51:05.551Z,50.83
2019-04-01T08:53:35.354Z,50.63
2019-04-01T08:56:05.433Z,51.10
2019-04-01T08:58:35.342Z,50.67
2019-04-01T09:01:05.454Z,51.17
2019-04-01T09:03:35.171Z,50.67
2019-04-01T09:06:05.109Z,51.00
2019-04-01T09:08:35.251Z,51.13
2019-04-01T09:11:04.959Z,50.90
2019-04-01T09:13:38.342Z,50.83
2019-04-01T09:16:08.608Z,51.80
2019-04-01T09:18:38.248Z,51.17
2019-04-01T09:21:08.821Z,51.17
2019-04-01T09:23:39.613Z,50.30
2019-04-01T09:26:09.252Z,50.80
2019-04-01T09:28:38.923Z,53.03
2019-04-01T09:31:08.558Z,50.53
2019-04-01T09:33:38.239Z,51.87
2019-04-01T09:36:07.876Z,50.87
2019-04-01T09:38:37.583Z,54.03
2019-04-01T09:41:07.335Z,50.87
2019-04-01T09:43:37.050Z,52.93
2019-04-01T09:46:06.747Z,50.70
2019-04-01T09:48:36.383Z,50.10
2019-04-01T09:51:06.084Z,50.47
2019-04-01T09:53:35.735Z,50.27
2019-04-01T09:56:05.714Z,50.07
2019-04-01T09:58:35.350Z,50.70
2019-04-01T10:01:05.046Z,50.17
2019-04-01T10:03:35.654Z,50.63
2019-04-01T10:06:05.447Z,50.03
2019-04-01T10:08:42.103Z,50.67
2019-04-01T10:11:06.492Z,50.20
2019-04-01T10:13:36.131Z,50.90
2019-04-01T10:16:05.754Z,51.00
2019-04-01T10:18:35.398Z,50.63
2019-04-01T10:21:05.175Z,50.63
2019-04-01T10:23:34.882Z,50.83
2019-04-01T10:26:05.675Z,51.23
2019-04-01T10:28:35.303Z,50.63
2019-04-01T10:31:05.398Z,50.93
2019-04-01T10:33:35.039Z,50.50
2019-04-01T10:36:04.742Z,50.37
2019-04-01T10:38:34.382Z,50.80
2019-04-01T10:41:04.455Z,50.97
2019-04-01T10:43:34.243Z,52.10
2019-04-01T10:46:03.940Z,51.63
2019-04-01T10:48:33.622Z,51.63
2019-04-01T10:51:03.433Z,50.87
2019-04-01T10:53:33.267Z,51.17
2019-04-01T10:56:02.994Z,50.90
2019-04-01T10:58:32.702Z,50.93
2019-04-01T11:01:02.560Z,50.77
2019-04-01T11:03:32.346Z,50.20
2019-04-01T11:06:02.019Z,50.23
2019-04-01T11:08:31.794Z,49.83
2019-04-01T11:11:01.627Z,50.20
2019-04-01T11:13:31.631Z,50.17
2019-04-01T11:16:01.434Z,51.07
2019-04-01T11:18:31.079Z,50.90
2019-04-01T11:21:00.704Z,50.77
2019-04-01T11:23:30.384Z,50.57
2019-04-01T11:26:00.022Z,50.93
2019-04-01T11:28:29.721Z,50.40
2019-04-01T11:30:59.415Z,50.97
2019-04-01T11:33:29.275Z,51.07
2019-04-01T11:35:59.020Z,51.57
2019-04-01T11:38:28.660Z,50.93
2019-04-01T11:40:58.507Z,51.23
2019-04-01T11:43:28.304Z,50.63
2019-04-01T11:45:58.086Z,50.43
2019-04-01T11:48:27.786Z,50.83
2019-04-01T11:50:57.400Z,51.37
2019-04-01T11:53:27.035Z,50.37
2019-04-01T11:55:56.711Z,50.93
2019-04-01T11:58:26.354Z,50.40
2019-04-01T12:00:55.984Z,50.80
2019-04-01T12:03:25.640Z,51.20
2019-04-01T12:05:55.424Z,50.60
2019-04-01T12:08:25.723Z,50.63
2019-04-01T12:10:55.503Z,50.67
2019-04-01T12:13:25.199Z,50.47
2019-04-01T12:15:54.904Z,50.77
2019-04-01T12:18:24.548Z,50.70
2019-04-01T12:20:54.463Z,51.00
2019-04-01T12:23:24.198Z,51.00
2019-04-01T12:25:53.914Z,50.90
2019-04-01T12:28:23.657Z,50.57
2019-04-01T12:30:53.284Z,50.80
2019-04-01T12:33:25.934Z,50.63
2019-04-01T12:35:54.347Z,50.57
2019-04-01T12:38:23.976Z,50.20
2019-04-01T12:40:53.742Z,50.07
2019-04-01T12:43:23.767Z,50.60
2019-04-01T12:45:54.815Z,50.77
2019-04-01T12:48:25.644Z,50.57
2019-04-01T12:50:55.626Z,50.57
2019-04-01T12:53:25.403Z,50.80
2019-04-01T12:55:55.044Z,51.27
2019-04-01T12:58:25.348Z,51.00
2019-04-01T13:00:55.423Z,51.07
2019-04-01T13:03:25.074Z,51.57
2019-04-01T13:05:54.774Z,51.10
2019-04-01T13:08:25.386Z,51.30
2019-04-01T13:10:56.688Z,51.07
2019-04-01T13:13:26.451Z,50.77
2019-04-01T13:15:56.167Z,50.33
2019-04-01T13:18:25.800Z,50.77
2019-04-01T13:20:55.499Z,51.50
2019-04-01T13:23:25.139Z,51.53
2019-04-01T13:25:54.846Z,51.40
2019-04-01T13:28:25.962Z,51.30
2019-04-01T13:30:55.903Z,51.20
2019-04-01T13:33:25.543Z,51.10
2019-04-01T13:35:55.183Z,51.23
2019-04-01T13:38:24.819Z,51.17
2019-04-01T13:40:54.455Z,52.00
2019-04-01T13:43:24.106Z,51.43
2019-04-01T13:45:53.728Z,51.90
2019-04-01T13:48:23.367Z,51.90
2019-04-01T13:50:53.066Z,51.43
2019-04-01T13:53:22.706Z,51.73
2019-04-01T13:55:52.335Z,52.40
2019-04-01T13:58:21.975Z,51.40
2019-04-01T14:00:51.686Z,51.60
2019-04-01T14:03:21.327Z,51.40
2019-04-01T14:05:50.951Z,51.40
2019-04-01T14:08:22.305Z,51.10
2019-04-01T14:10:51.996Z,51.67
2019-04-01T14:13:21.637Z,51.43
2019-04-01T14:15:51.620Z,51.73
2019-04-01T14:18:21.475Z,51.57
2019-04-01T14:20:51.560Z,51.00
2019-04-01T14:23:23.399Z,51.87
2019-04-01T14:25:52.611Z,51.67
2019-04-01T14:28:22.261Z,51.60
2019-04-01T14:30:51.972Z,51.33
2019-04-01T14:33:21.602Z,51.60
2019-04-01T14:35:51.223Z,51.50
2019-04-01T14:38:20.940Z,51.57
2019-04-01T14:40:50.620Z,51.77
2019-04-01T14:43:20.386Z,51.67
2019-04-01T14:45:50.102Z,51.60
2019-04-01T14:48:19.740Z,52.13
2019-04-01T14:50:49.367Z,52.43
2019-04-01T14:53:18.999Z,52.50
2019-04-01T14:55:48.635Z,51.50
2019-04-01T14:58:18.275Z,51.43
2019-04-01T15:00:47.904Z,51.83
2019-04-01T15:03:17.611Z,51.90
2019-04-01T15:05:48.919Z,51.70
2019-04-01T15:08:19.436Z,51.47
2019-04-01T15:10:49.519Z,50.97
2019-04-01T15:13:19.154Z,51.33
2019-04-01T15:15:48.948Z,51.67
2019-04-01T15:18:18.703Z,51.13
2019-04-01T15:20:48.330Z,51.43
2019-04-01T15:23:18.078Z,51.27
2019-04-01T15:25:47.706Z,51.90
2019-04-01T15:28:17.346Z,51.63
2019-04-01T15:30:47.063Z,51.87
2019-04-01T15:33:17.671Z,52.00
2019-04-01T15:35:47.374Z,51.97
2019-04-01T15:38:17.014Z,51.33
2019-04-01T15:40:47.215Z,51.27
2019-04-01T15:43:17.347Z,51.23
2019-04-01T15:45:46.979Z,51.43
2019-04-01T15:48:16.615Z,51.17
2019-04-01T15:50:46.266Z,51.93
2019-04-01T15:53:15.910Z,51.60
2019-04-01T15:55:45.530Z,51.67
2019-04-01T15:58:15.179Z,51.30
2019-04-01T16:00:44.894Z,51.67
2019-04-01T16:03:14.587Z,50.97
2019-04-01T16:05:44.222Z,51.93
2019-04-01T16:08:13.954Z,51.27
2019-04-01T16:10:43.602Z,51.23
2019-04-01T16:13:14.206Z,51.77
2019-04-01T16:15:44.087Z,51.57
2019-04-01T16:18:13.795Z,51.80
2019-04-01T16:20:43.443Z,51.20
2019-04-01T16:23:13.087Z,51.40
2019-04-01T16:25:42.740Z,51.13
2019-04-01T16:28:12.369Z,52.17
2019-04-01T16:30:42.023Z,51.43
2019-04-01T16:33:11.663Z,51.40
2019-04-01T16:35:41.408Z,51.10
2019-04-01T16:38:11.074Z,51.70
2019-04-01T16:40:40.800Z,51.23
2019-04-01T16:43:10.430Z,51.00
2019-04-01T16:45:40.350Z,51.70
2019-04-01T16:48:10.055Z,50.43
2019-04-01T16:50:39.849Z,51.70
2019-04-01T16:53:09.479Z,50.87
2019-04-01T16:55:39.131Z,51.07
2019-04-01T16:58:08.775Z,51.40
2019-04-01T17:00:38.415Z,51.23
2019-04-01T17:03:08.046Z,50.53
2019-04-01T17:05:37.755Z,51.10
2019-04-01T17:08:07.474Z,50.90
2019-04-01T17:10:37.115Z,51.00
2019-04-01T17:13:08.211Z,51.20
2019-04-01T17:15:38.007Z,50.90
2019-04-01T17:18:07.639Z,51.40
2019-04-01T17:20:37.358Z,51.67
2019-04-01T17:23:07.319Z,50.67
2019-04-01T17:25:36.960Z,50.70
2019-04-01T17:28:06.735Z,50.63
2019-04-01T17:30:37.518Z,50.90
2019-04-01T17:33:08.612Z,50.73
2019-04-01T17:35:38.567Z,50.40
2019-04-01T17:38:08.268Z,50.47
2019-04-01T17:40:37.912Z,50.80
2019-04-01T17:43:09.493Z,50.50
2019-04-01T17:45:40.750Z,50.53
2019-04-01T17:48:10.880Z,50.37
2019-04-01T17:50:40.698Z,50.10
2019-04-01T17:53:11.580Z,50.20
2019-04-01T17:55:41.308Z,50.30
2019-04-01T17:58:11.015Z,50.73
2019-04-01T18:00:44.295Z,50.67
2019-04-01T18:03:13.999Z,50.93
2019-04-01T18:05:43.775Z,50.13
2019-04-01T18:08:13.492Z,49.83
2019-04-01T18:10:43.132Z,50.27
2019-04-01T18:13:12.758Z,50.67
2019-04-01T18:15:42.506Z,50.10
2019-04-01T18:18:25.788Z,50.00
2019-04-01T18:20:43.627Z,50.40
2019-04-01T18:23:13.269Z,50.33
2019-04-01T18:25:42.903Z,50.53
2019-04-01T18:28:13.072Z,50.50
2019-04-01T18:30:43.235Z,50.00
2019-04-01T18:33:12.862Z,50.33
2019-04-01T18:35:44.798Z,50.27
2019-04-01T18:38:14.278Z,50.03
2019-04-01T18:40:43.918Z,49.87
2019-04-01T18:43:13.608Z,50.53
2019-04-01T18:45:43.266Z,50.03
2019-04-01T18:48:14.553Z,50.17
2019-04-01T18:50:44.378Z,50.43
2019-04-01T18:53:14.088Z,50.70
2019-04-01T18:55:43.882Z,50.30
2019-04-01T18:58:13.510Z,50.53
2019-04-01T19:00:43.194Z,50.27
2019-04-01T19:03:12.853Z,50.43
2019-04-01T19:05:42.518Z,50.10
2019-04-01T19:08:12.175Z,50.03
2019-04-01T19:10:42.074Z,50.50
2019-04-01T19:13:12.752Z,49.53
2019-04-01T19:15:43.783Z,50.20
2019-04-01T19:18:14.846Z,50.50
2019-04-01T19:20:55.580Z,50.20
2019-04-01T19:23:15.842Z,50.00
2019-04-01T19:25:45.792Z,50.50
2019-04-01T19:28:15.419Z,50.37
2019-04-01T19:30:45.135Z,50.10
2019-04-01T19:33:14.850Z,50.23
2019-04-01T19:35:44.516Z,50.33
2019-04-01T19:38:14.172Z,50.17
2019-04-01T19:40:43.823Z,50.07
2019-04-01T19:43:13.464Z,49.97
2019-04-01T19:45:43.395Z,50.10
2019-04-01T19:48:13.041Z,50.20
2019-04-01T19:50:42.671Z,50.10
2019-04-01T19:53:12.384Z,49.97
2019-04-01T19:55:43.830Z,50.43
2019-04-01T19:58:13.363Z,50.27
2019-04-01T20:00:43.582Z,50.07
2019-04-01T20:03:13.351Z,50.57
2019-04-01T20:05:42.994Z,50.17
2019-04-01T20:08:14.169Z,50.33
2019-04-01T20:10:44.090Z,50.53
2019-04-01T20:13:13.744Z,50.43
2019-04-01T20:15:43.383Z,49.97
2019-04-01T20:18:13.114Z,50.20
2019-04-01T20:20:42.759Z,50.37
2019-04-01T20:23:12.423Z,50.53
2019-04-01T20:25:42.139Z,50.33
2019-04-01T20:28:12.949Z,50.00
2019-04-01T20:30:42.899Z,50.50
2019-04-01T20:33:18.186Z,50.30
2019-04-01T20:35:43.982Z,50.27
2019-04-01T20:38:13.633Z,50.53
2019-04-01T20:40:43.277Z,50.57
2019-04-01T20:43:15.220Z,50.33
2019-04-01T20:45:45.052Z,50.80
2019-04-01T20:48:14.715Z,51.00
2019-04-01T20:50:44.356Z,50.70
2019-04-01T20:53:14.073Z,50.70
2019-04-01T20:55:48.351Z,50.13
2019-04-01T20:58:15.048Z,50.57
2019-04-01T21:00:44.865Z,50.50
2019-04-01T21:03:14.675Z,50.67
2019-04-01T21:05:44.393Z,50.23
2019-04-01T21:08:14.034Z,50.13
2019-04-01T21:10:43.668Z,50.33
2019-04-01T21:13:13.326Z,50.10
2019-04-01T21:15:42.963Z,50.33
2019-04-01T21:18:12.599Z,50.00
2019-04-01T21:20:42.310Z,50.17
2019-04-01T21:23:12.450Z,50.50
2019-04-01T21:25:42.075Z,50.43
2019-04-01T21:28:11.721Z,50.53
2019-04-01T21:30:41.342Z,50.10
2019-04-01T21:33:10.987Z,50.00
2019-04-01T21:35:40.622Z,50.47
2019-04-01T21:38:10.258Z,50.73
2019-04-01T21:40:39.895Z,50.47
2019-04-01T21:43:09.658Z,50.23
2019-04-01T21:45:39.282Z,50.57
2019-04-01T21:48:10.368Z,50.53
2019-04-01T21:50:40.298Z,50.20
2019-04-01T21:53:10.011Z,50.40
2019-04-01T21:55:39.632Z,50.17
2019-04-01T21:58:09.345Z,50.40
2019-04-01T22:00:53.214Z,50.00
2019-04-01T22:03:23.123Z,49.87
2019-04-01T22:05:54.371Z,49.90
2019-04-01T22:08:24.016Z,50.30
2019-04-01T22:10:53.710Z,49.80
2019-04-01T22:13:23.423Z,50.13
2019-04-01T22:15:53.071Z,49.83
2019-04-01T22:18:22.798Z,50.17
2019-04-01T22:20:53.604Z,49.90
2019-04-01T22:23:23.251Z,49.83
2019-04-01T22:25:52.878Z,50.10
2019-04-01T22:28:22.650Z,49.80
2019-04-01T22:30:52.329Z,49.93
2019-04-01T22:33:21.974Z,50.03
2019-04-01T22:35:51.606Z,49.80
2019-04-01T22:38:25.215Z,49.50
2019-04-01T22:40:52.735Z,50.17
2019-04-01T22:43:22.552Z,49.60
2019-04-01T22:45:52.197Z,49.70
2019-04-01T22:48:21.831Z,50.30
2019-04-01T22:50:51.458Z,50.43
2019-04-01T22:53:21.103Z,49.73
2019-04-01T22:55:50.735Z,50.00
2019-04-01T22:58:21.938Z,49.97
2019-04-01T23:00:51.756Z,49.43
2019-04-01T23:03:21.390Z,49.97
2019-04-01T23:05:51.023Z,49.67
2019-04-01T23:08:20.659Z,49.83
2019-04-01T23:10:50.378Z,50.17
2019-04-01T23:13:20.177Z,50.10
2019-04-01T23:15:50.138Z,49.70
2019-04-01T23:18:19.771Z,49.70
2019-04-01T23:20:49.418Z,49.80
2019-04-01T23:23:19.039Z,49.50
2019-04-01T23:25:48.683Z,49.03
2019-04-01T23:28:18.311Z,49.63
2019-04-01T23:30:48.156Z,49.40
2019-04-01T23:33:18.730Z,49.60
2019-04-01T23:35:48.389Z,49.50
2019-04-01T23:38:18.018Z,49.23
2019-04-01T23:40:47.667Z,49.97
2019-04-01T23:43:17.299Z,49.60
2019-04-01T23:45:46.948Z,49.60
2019-04-01T23:48:16.574Z,49.40
2019-04-01T23:50:46.210Z,49.73
2019-04-01T23:53:15.850Z,49.97
2019-04-01T23:55:45.526Z,49.70
2019-04-01T23:58:15.198Z,49.57
